Station Historical Data
Daily Summary for May 15, 2017 Units:  Metric    English   Both
« Previous Day
Next Day »
Daily Weekly Monthly Yearly Custom
  High: Low: Average:
Temperature: 30.1 °C 15.4 °C 22.5 °C
Dew Point: 16.7 °C 13.2 °C 14.6 °C
Humidity: 92% 36% 64%
Wind Speed: 1.6km/h 0km/h 0km/h
Wind Gust: 8km/h - -
Wind- - SSE
Pressure: 1017.5 hPa 1014.4 hPa -
Precipitation: 0 mm    
Historical Graphs
 
 
Tabular Data for May 15, 2017
Time Temperature Dew Point Pressure Wind Wind Speed Wind Gust Humidity Rainfall Rate (Hourly) solar Conditions
00:00 17.6 °C 14.3 °C 1015.5 hPa Calm     81% 0 mm WeatherDisplay:10.37 W/m2 SCT
00:15 17.4 °C 14.3 °C 1015.5 hPa Calm     82% 0 mm WeatherDisplay:10.37 W/m2 SCT
00:30 17.3 °C 14.2 °C 1015.5 hPa Calm     82% 0 mm WeatherDisplay:10.37 W/m2 SCT
00:45 17.2 °C 14.4 °C 1015.5 hPa Calm     84% 0 mm WeatherDisplay:10.37 W/m2 SCT
01:00 17 °C 14.1 °C 1015.5 hPa Calm     83% 0 mm WeatherDisplay:10.37 W/m2 SCT
01:15 16.8 °C 14.1 °C 1015.8 hPa Calm     84% 0 mm WeatherDisplay:10.37 W/m2 SCT
01:30 16.7 °C 14.2 °C 1015.5 hPa Calm     85% 0 mm WeatherDisplay:10.37 W/m2 SCT
01:45 16.6 °C 14.1 °C 1015.5 hPa Calm     85% 0 mm WeatherDisplay:10.37 W/m2 SCT
02:00 16.5 °C 13.9 °C 1015.5 hPa Calm     85% 0 mm WeatherDisplay:10.37 W/m2 SCT
02:15 16.4 °C 14.1 °C 1015.5 hPa Calm     86% 0 mm WeatherDisplay:10.37 W/m2 SCT
02:30 16.3 °C 13.9 °C 1015.8 hPa Calm     86% 0 mm WeatherDisplay:10.37 W/m2 SCT
02:45 16.1 °C 13.9 °C 1015.5 hPa Calm     87% 0 mm WeatherDisplay:10.37 W/m2 SCT
03:00 15.9 °C 13.8 °C 1015.5 hPa Calm     87% 0 mm WeatherDisplay:10.37 W/m2 SCT
03:15 15.8 °C 13.6 °C 1015.5 hPa Calm     87% 0 mm WeatherDisplay:10.37 W/m2 SCT
03:30 15.4 °C 13.2 °C 1015.5 hPa Calm     87% 0 mm WeatherDisplay:10.37 W/m2 SCT
03:45 15.4 °C 13.2 °C 1015.5 hPa Calm     87% 0 mm WeatherDisplay:10.37 W/m2 SCT
04:00 15.4 °C 13.2 °C 1015.8 hPa Calm     87% 0 mm WeatherDisplay:10.37 W/m2 SCT
04:15 15.4 °C 13.2 °C 1015.8 hPa Calm     87% 0 mm WeatherDisplay:10.37 W/m2 SCT
04:30 15.4 °C 13.2 °C 1015.8 hPa Calm     87% 0 mm WeatherDisplay:10.37 W/m2 SCT
04:45 15.4 °C 13.2 °C 1015.8 hPa Calm     87% 0 mm WeatherDisplay:10.37 W/m2 SCT
05:00 15.4 °C 13.2 °C 1015.8 hPa Calm     87% 0 mm WeatherDisplay:10.37 W/m2 SCT
05:15 15.4 °C 13.2 °C 1015.8 hPa Calm     87% 0 mm WeatherDisplay:10.37 W/m2 SCT
05:30 15.4 °C 13.2 °C 1015.8 hPa Calm     87% 0 mm WeatherDisplay:10.37 W/m2 SCT
05:45 15.4 °C 13.2 °C 1015.8 hPa Calm     87% 0 mm WeatherDisplay:10.37 W/m2 SCT
06:00 15.4 °C 13.2 °C 1015.8 hPa Calm     87% 0 mm WeatherDisplay:10.37 W/m2 SCT
06:15 15.4 °C 13.2 °C 1015.8 hPa Calm     87% 0 mm WeatherDisplay:10.37 W/m2 SCT
06:30 15.4 °C 13.2 °C 1015.8 hPa Calm     87% 0 mm WeatherDisplay:10.37 W/m2 SCT
06:45 15.4 °C 13.2 °C 1016.1 hPa Calm     87% 0 mm WeatherDisplay:10.37 W/m2 SCT
07:00 15.4 °C 13.2 °C 1016.5 hPa Calm     87% 0 mm WeatherDisplay:10.37 W/m2 SCT
07:15 15.4 °C 13.2 °C 1016.8 hPa Calm     87% 0 mm WeatherDisplay:10.37 W/m2 SCT
07:30 15.4 °C 13.2 °C 1016.8 hPa Calm     87% 0 mm WeatherDisplay:10.37 W/m2 SCT
07:45 15.4 °C 14.1 °C 1017.2 hPa Calm     92% 0 mm WeatherDisplay:10.37 W/m2 SCT
08:00 16 °C 14.7 °C 1017.2 hPa Calm     92% 0 mm WeatherDisplay:10.37 W/m2 SCT
08:15 16.7 °C 15.4 °C 1017.2 hPa Calm     92% 0 mm WeatherDisplay:10.37 W/m2 SCT
08:30 17.7 °C 16 °C 1017.2 hPa Calm     90% 0 mm WeatherDisplay:10.37 W/m2 SCT
08:45 18.7 °C 16.5 °C 1017.5 hPa Calm     87% 0 mm WeatherDisplay:10.37 W/m2 SCT
09:00 19.8 °C 16.7 °C 1017.2 hPa Calm   1.6 km/h 82% 0 mm WeatherDisplay:10.37 W/m2 SCT
09:15 21 °C 16.4 °C 1017.5 hPa Calm   1.6 km/h 75% 0 mm WeatherDisplay:10.37 W/m2 SCT
09:30 22.1 °C 15.9 °C 1017.5 hPa Calm   1.6 km/h 68% 0 mm WeatherDisplay:10.37 W/m2 SCT
09:45 23 °C 15.8 °C 1017.5 hPa Calm   1.6 km/h 64% 0 mm WeatherDisplay:10.37 W/m2 SCT
10:00 23.8 °C 15.3 °C 1017.5 hPa Calm   4.8 km/h 59% 0 mm WeatherDisplay:10.37 W/m2 SCT
10:15 24.8 °C 15.5 °C 1017.5 hPa Calm   4.8 km/h 56% 0 mm WeatherDisplay:10.37 W/m2 SCT
10:30 25.6 °C 16.1 °C 1017.5 hPa Calm   3.2 km/h 56% 0 mm WeatherDisplay:10.37 W/m2 SCT
10:45 25.7 °C 15.1 °C 1017.5 hPa Calm   3.2 km/h 52% 0 mm WeatherDisplay:10.37 W/m2 SCT
11:00 26.1 °C 15.4 °C 1017.5 hPa South 1.6 km/h 3.2 km/h 52% 0 mm WeatherDisplay:10.37 W/m2 SCT
11:15 26.1 °C 15.5 °C 1017.5 hPa Calm   4.8 km/h 52% 0 mm WeatherDisplay:10.37 W/m2 SCT
11:30 26.3 °C 15.3 °C 1017.5 hPa Calm   3.2 km/h 51% 0 mm WeatherDisplay:10.37 W/m2 SCT
11:45 26.7 °C 14.4 °C 1017.5 hPa NE 1.6 km/h 4.8 km/h 47% 0 mm WeatherDisplay:10.37 W/m2 SCT
12:00 26.7 °C 14.8 °C 1017.2 hPa Calm   3.2 km/h 48% 0 mm WeatherDisplay:10.37 W/m2 SCT
12:15 27.2 °C 15.2 °C 1017.2 hPa Calm   3.2 km/h 48% 0 mm WeatherDisplay:10.37 W/m2 SCT
12:30 27.4 °C 15.4 °C 1016.8 hPa Calm   1.6 km/h 48% 0 mm WeatherDisplay:10.37 W/m2 SCT
12:45 28.4 °C 15.7 °C 1016.8 hPa Calm   3.2 km/h 46% 0 mm WeatherDisplay:10.37 W/m2 SCT
13:00 28.9 °C 15.4 °C 1016.5 hPa Calm   4.8 km/h 44% 0 mm WeatherDisplay:10.37 W/m2 SCT
13:15 29.5 °C 15.3 °C 1016.5 hPa Calm   1.6 km/h 42% 0 mm WeatherDisplay:10.37 W/m2 SCT
13:30 30.1 °C 15.4 °C 1016.5 hPa Calm   1.6 km/h 41% 0 mm WeatherDisplay:10.37 W/m2 SCT
13:45 29.7 °C 13.8 °C 1016.1 hPa Calm   4.8 km/h 38% 0 mm WeatherDisplay:10.37 W/m2 SCT
14:00 29.2 °C 14.6 °C 1016.1 hPa Calm   8 km/h 41% 0 mm WeatherDisplay:10.37 W/m2 SCT
14:15 28.7 °C 13.8 °C 1015.8 hPa Calm   4.8 km/h 40% 0 mm WeatherDisplay:10.37 W/m2 SCT
14:30 29 °C 14.4 °C 1015.8 hPa Calm   4.8 km/h 41% 0 mm WeatherDisplay:10.37 W/m2 SCT
14:45 28.8 °C 14.3 °C 1015.5 hPa NW 1.6 km/h 3.2 km/h 41% 0 mm WeatherDisplay:10.37 W/m2 SCT
15:00 28.9 °C 14 °C 1015.5 hPa Calm   3.2 km/h 40% 0 mm WeatherDisplay:10.37 W/m2 SCT
15:15 29.1 °C 14.1 °C 1015.1 hPa Calm   4.8 km/h 40% 0 mm WeatherDisplay:10.37 W/m2 SCT
15:30 29.1 °C 14.1 °C 1015.1 hPa Calm   4.8 km/h 40% 0 mm WeatherDisplay:10.37 W/m2 SCT
15:45 29.1 °C 14.4 °C 1014.8 hPa Calm   1.6 km/h 41% 0 mm WeatherDisplay:10.37 W/m2 SCT
16:00 29.1 °C 14.8 °C 1014.8 hPa Calm   1.6 km/h 42% 0 mm WeatherDisplay:10.37 W/m2 SCT
16:15 29.2 °C 13.8 °C 1014.8 hPa Calm   4.8 km/h 39% 0 mm WeatherDisplay:10.37 W/m2 SCT
16:30 29.4 °C 15.1 °C 1014.4 hPa Calm   1.6 km/h 42% 0 mm WeatherDisplay:10.37 W/m2 SCT
16:45 29.7 °C 14.6 °C 1014.4 hPa Calm   3.2 km/h 40% 0 mm WeatherDisplay:10.37 W/m2 SCT
17:00 29.8 °C 13.9 °C 1014.4 hPa ESE 1.6 km/h 4.8 km/h 38% 0 mm WeatherDisplay:10.37 W/m2 SCT
17:15 30.1 °C 13.4 °C 1014.4 hPa Calm   1.6 km/h 36% 0 mm WeatherDisplay:10.37 W/m2 SCT
17:30 29.6 °C 14.5 °C 1014.4 hPa Calm   1.6 km/h 40% 0 mm WeatherDisplay:10.37 W/m2 SCT
17:45 29.3 °C 13.5 °C 1014.4 hPa Calm   1.6 km/h 38% 0 mm WeatherDisplay:10.37 W/m2 SCT
18:00 29.1 °C 14.8 °C 1014.4 hPa Calm   4.8 km/h 42% 0 mm WeatherDisplay:10.37 W/m2 SCT
18:15 29.3 °C 14.7 °C 1014.4 hPa Calm   4.8 km/h 41% 0 mm WeatherDisplay:10.37 W/m2 SCT
18:30 28.6 °C 15.2 °C 1014.4 hPa Calm   1.6 km/h 44% 0 mm WeatherDisplay:10.37 W/m2 SCT
18:45 28.1 °C 14.7 °C 1014.8 hPa Calm   1.6 km/h 44% 0 mm WeatherDisplay:10.37 W/m2 SCT
19:00 27.7 °C 14.3 °C 1014.8 hPa Calm   1.6 km/h 44% 0 mm WeatherDisplay:10.37 W/m2 SCT
19:15 27.2 °C 15.6 °C 1014.8 hPa Calm   1.6 km/h 49% 0 mm WeatherDisplay:10.37 W/m2 SCT
19:30 26.7 °C 15.1 °C 1015.1 hPa Calm   3.2 km/h 49% 0 mm WeatherDisplay:10.37 W/m2 SCT
19:45 26.2 °C 15.2 °C 1015.1 hPa Calm   1.6 km/h 51% 0 mm WeatherDisplay:10.37 W/m2 SCT
20:00 25.7 °C 15.4 °C 1015.1 hPa Calm     53% 0 mm WeatherDisplay:10.37 W/m2 SCT
20:15 25.3 °C 15.3 °C 1015.1 hPa Calm     54% 0 mm WeatherDisplay:10.37 W/m2 SCT
20:30 24.9 °C 15.6 °C 1015.5 hPa Calm     56% 0 mm WeatherDisplay:10.37 W/m2 SCT
20:45 24.5 °C 15.2 °C 1015.5 hPa Calm     56% 0 mm WeatherDisplay:10.37 W/m2 SCT
21:00 24.1 °C 15.8 °C 1015.5 hPa Calm     60% 0 mm WeatherDisplay:10.37 W/m2 SCT
21:15 23.8 °C 15.8 °C 1015.5 hPa Calm     61% 0 mm WeatherDisplay:10.37 W/m2 SCT
21:30 23.5 °C 15.8 °C 1015.8 hPa Calm     62% 0 mm WeatherDisplay:10.37 W/m2 SCT
21:45 23.4 °C 15.2 °C 1015.8 hPa Calm     60% 0 mm WeatherDisplay:10.37 W/m2 SCT
22:00 23.4 °C 15.2 °C 1015.8 hPa Calm     60% 0 mm WeatherDisplay:10.37 W/m2 SCT
22:15 23.2 °C 15.5 °C 1015.8 hPa Calm     62% 0 mm WeatherDisplay:10.37 W/m2 SCT
22:30 22.8 °C 15.6 °C 1015.8 hPa Calm     64% 0 mm WeatherDisplay:10.37 W/m2 SCT
22:45 22.4 °C 15.5 °C 1016.1 hPa Calm     65% 0 mm WeatherDisplay:10.37 W/m2 SCT
23:00 21.9 °C 15.6 °C 1016.1 hPa Calm     67% 0 mm WeatherDisplay:10.37 W/m2 SCT
23:15 21.5 °C 15.6 °C 1016.1 hPa Calm     69% 0 mm WeatherDisplay:10.37 W/m2 SCT
23:30 21.2 °C 15.7 °C 1016.1 hPa Calm     71% 0 mm WeatherDisplay:10.37 W/m2 SCT
23:45 21.1 °C 15.8 °C 1016.1 hPa Calm     72% 0 mm WeatherDisplay:10.37 W/m2 SCT
Piedmont Bend
Compliments of Weather Underground - 4 mb